createdAt,value
2023-04-25T00:00:28.848Z,6.70
2023-04-25T00:02:58.197Z,6.70
2023-04-25T00:05:27.660Z,6.70
2023-04-25T00:07:55.721Z,6.80
2023-04-25T00:10:23.874Z,6.80
2023-04-25T00:12:52.932Z,6.70
2023-04-25T00:15:22.456Z,6.80
2023-04-25T00:17:50.564Z,6.80
2023-04-25T00:20:18.594Z,7.00
2023-04-25T00:22:46.628Z,6.80
2023-04-25T00:25:14.670Z,6.70
2023-04-25T00:27:42.849Z,6.80
2023-04-25T00:30:11.978Z,6.80
2023-04-25T00:32:41.405Z,6.80
2023-04-25T00:35:11.115Z,6.90
2023-04-25T00:37:39.262Z,6.80
2023-04-25T00:40:08.875Z,6.80
2023-04-25T00:42:38.331Z,6.80
2023-04-25T00:45:09.196Z,7.00
2023-04-25T00:47:38.572Z,6.90
2023-04-25T00:50:09.957Z,6.90
2023-04-25T00:52:39.834Z,6.90
2023-04-25T00:55:08.435Z,6.90
2023-04-25T00:57:36.859Z,6.90
2023-04-25T01:00:07.471Z,7.10
2023-04-25T01:02:37.137Z,6.80
2023-04-25T01:05:07.303Z,6.80
2023-04-25T01:07:35.981Z,6.80
2023-04-25T01:10:04.874Z,6.80
2023-04-25T01:12:32.960Z,6.90
2023-04-25T01:15:01.006Z,6.80
2023-04-25T01:17:30.220Z,6.70
2023-04-25T01:19:58.450Z,6.90
2023-04-25T01:22:27.993Z,6.90
2023-04-25T01:24:56.176Z,7.00
2023-04-25T01:27:24.704Z,6.90
2023-04-25T01:29:53.208Z,6.90
2023-04-25T01:32:21.697Z,7.10
2023-04-25T01:34:49.764Z,6.80
2023-04-25T01:37:18.833Z,6.90
2023-04-25T01:39:49.747Z,6.80
2023-04-25T01:42:17.802Z,6.70
2023-04-25T01:44:45.868Z,6.60
2023-04-25T01:47:13.912Z,6.70
2023-04-25T01:49:42.001Z,6.70
2023-04-25T01:52:10.117Z,6.70
2023-04-25T01:54:38.074Z,6.70
2023-04-25T01:57:07.484Z,6.60
2023-04-25T01:59:35.731Z,6.70
2023-04-25T02:02:04.714Z,6.70
2023-04-25T02:04:33.005Z,6.70
2023-04-25T02:07:01.323Z,6.70
2023-04-25T02:09:29.305Z,6.70
2023-04-25T02:11:57.426Z,6.70
2023-04-25T02:14:26.833Z,6.70
2023-04-25T02:16:55.211Z,6.60
2023-04-25T02:19:23.441Z,6.60
2023-04-25T02:21:51.474Z,6.60
2023-04-25T02:24:19.710Z,6.60
2023-04-25T02:26:47.824Z,6.60
2023-04-25T02:29:16.265Z,6.60
2023-04-25T02:31:45.872Z,6.60
2023-04-25T02:34:14.011Z,6.60
2023-04-25T02:36:42.049Z,6.60
2023-04-25T02:39:10.128Z,6.60
2023-04-25T02:41:38.282Z,6.40
2023-04-25T02:44:06.378Z,6.30
2023-04-25T02:46:39.393Z,6.40
2023-04-25T02:49:09.525Z,6.40
2023-04-25T02:51:37.645Z,6.40
2023-04-25T02:54:07.557Z,6.40
2023-04-25T02:56:35.619Z,6.40
2023-04-25T02:59:03.751Z,6.40
2023-04-25T03:01:31.848Z,6.30
2023-04-25T03:04:00.017Z,6.50
2023-04-25T03:06:29.474Z,6.30
2023-04-25T03:08:57.519Z,6.30
2023-04-25T03:11:27.596Z,6.40
2023-04-25T03:13:55.679Z,6.40
2023-04-25T03:16:24.171Z,6.30
2023-04-25T03:18:52.293Z,6.30
2023-04-25T03:21:20.532Z,6.30
2023-04-25T03:23:50.148Z,6.30
2023-04-25T03:26:18.323Z,6.40
2023-04-25T03:28:46.371Z,6.50
2023-04-25T03:31:14.460Z,6.30
2023-04-25T03:33:42.489Z,6.30
2023-04-25T03:36:11.043Z,6.30
2023-04-25T03:38:39.087Z,6.30
2023-04-25T03:41:08.511Z,6.60
2023-04-25T03:43:36.554Z,6.30
2023-04-25T03:46:04.635Z,6.30
2023-04-25T03:48:32.805Z,6.30
2023-04-25T03:51:00.930Z,6.30
2023-04-25T03:53:28.941Z,6.30
2023-04-25T03:55:56.955Z,6.30
2023-04-25T03:58:26.482Z,6.30
2023-04-25T04:00:54.517Z,6.30
2023-04-25T04:03:22.855Z,6.30
2023-04-25T04:05:51.633Z,6.30
2023-04-25T04:08:19.703Z,6.20
2023-04-25T04:10:47.800Z,6.30
2023-04-25T04:13:15.850Z,6.50
2023-04-25T04:15:45.299Z,6.30
2023-04-25T04:18:13.373Z,6.30
2023-04-25T04:20:41.509Z,6.50
2023-04-25T04:23:09.606Z,6.30
2023-04-25T04:25:37.922Z,6.40
2023-04-25T04:28:06.964Z,6.40
2023-04-25T04:30:37.301Z,6.40
2023-04-25T04:33:08.187Z,6.40
2023-04-25T04:35:36.493Z,6.50
2023-04-25T04:38:04.522Z,6.50
2023-04-25T04:40:33.304Z,6.50
2023-04-25T04:43:01.319Z,6.40
2023-04-25T04:45:29.710Z,6.50
2023-04-25T04:47:57.770Z,6.50
2023-04-25T04:50:28.346Z,6.50
2023-04-25T04:52:56.641Z,6.50
2023-04-25T04:55:24.673Z,6.80
2023-04-25T04:57:52.866Z,6.50
2023-04-25T05:00:21.766Z,6.60
2023-04-25T05:02:50.290Z,6.50
2023-04-25T05:05:18.639Z,6.60
2023-04-25T05:07:48.134Z,6.60
2023-04-25T05:10:16.295Z,6.60
2023-04-25T05:12:44.371Z,6.60
2023-04-25T05:15:12.707Z,6.60
2023-04-25T05:17:41.117Z,6.60
2023-04-25T05:20:10.612Z,6.60
2023-04-25T05:22:38.700Z,6.60
2023-04-25T05:25:08.788Z,6.70
2023-04-25T05:27:36.818Z,6.60
2023-04-25T05:30:05.972Z,6.60
2023-04-25T05:32:34.207Z,6.60
2023-04-25T05:35:02.457Z,6.60
2023-04-25T05:37:31.550Z,6.60
2023-04-25T05:39:59.660Z,6.60
2023-04-25T05:42:29.031Z,6.60
2023-04-25T05:44:57.102Z,6.70
2023-04-25T05:47:26.346Z,6.50
2023-04-25T05:49:54.425Z,6.70
2023-04-25T05:52:22.494Z,6.60
2023-04-25T05:54:50.687Z,6.90
2023-04-25T05:57:23.473Z,6.80
2023-04-25T05:59:53.245Z,6.80
2023-04-25T06:02:21.961Z,6.80
2023-04-25T06:04:51.572Z,6.90
2023-04-25T06:07:19.987Z,6.90
2023-04-25T06:09:48.153Z,6.90
2023-04-25T06:12:16.245Z,7.00
2023-04-25T06:14:44.344Z,7.00
2023-04-25T06:17:13.792Z,7.10
2023-04-25T06:19:41.892Z,7.20
2023-04-25T06:22:10.130Z,7.40
2023-04-25T06:24:38.173Z,7.40
2023-04-25T06:27:06.284Z,7.40
2023-04-25T06:29:34.385Z,7.50
2023-04-25T06:32:02.445Z,7.60
2023-04-25T06:34:32.091Z,7.70
2023-04-25T06:37:00.248Z,7.80
2023-04-25T06:39:28.492Z,7.90
2023-04-25T06:41:57.709Z,8.00
2023-04-25T06:44:27.244Z,8.00
2023-04-25T06:46:57.303Z,8.10
2023-04-25T06:49:25.491Z,8.20
2023-04-25T06:51:55.131Z,8.30
2023-04-25T06:54:23.181Z,8.20
2023-04-25T06:56:51.316Z,8.20
2023-04-25T06:59:19.398Z,8.40
2023-04-25T07:01:47.617Z,8.40
2023-04-25T07:04:16.257Z,8.60
2023-04-25T07:06:44.933Z,8.70
2023-04-25T07:09:14.569Z,8.80
2023-04-25T07:11:44.277Z,8.90
2023-04-25T07:14:12.372Z,9.00
2023-04-25T07:16:40.843Z,9.10
2023-04-25T07:19:09.028Z,9.10
2023-04-25T07:21:49.525Z,9.10
2023-04-25T07:24:19.017Z,9.20
2023-04-25T07:26:47.080Z,9.20
2023-04-25T07:29:15.145Z,9.10
2023-04-25T07:31:43.221Z,9.10
2023-04-25T07:34:14.151Z,9.10
2023-04-25T07:36:42.247Z,9.20
2023-04-25T07:39:10.490Z,9.30
2023-04-25T07:41:39.991Z,9.50
2023-04-25T07:44:08.154Z,9.50
2023-04-25T07:46:38.996Z,9.60
2023-04-25T07:49:07.173Z,9.70
2023-04-25T07:51:35.265Z,9.80
2023-04-25T07:54:03.663Z,9.90
2023-04-25T07:56:45.273Z,10.10
2023-04-25T07:59:21.684Z,10.20
2023-04-25T08:01:49.955Z,10.20
2023-04-25T08:04:18.551Z,10.40
2023-04-25T08:06:47.523Z,10.40
2023-04-25T08:09:16.619Z,10.50
2023-04-25T08:11:44.847Z,10.50
2023-04-25T08:14:13.944Z,10.60
2023-04-25T08:16:43.905Z,10.70
2023-04-25T08:19:12.512Z,10.90
2023-04-25T08:21:40.626Z,11.00
2023-04-25T08:24:08.893Z,11.20
2023-04-25T08:26:38.364Z,11.30
2023-04-25T08:29:07.291Z,11.50
2023-04-25T08:31:35.685Z,11.60
2023-04-25T08:34:05.232Z,12.00
2023-04-25T08:36:39.357Z,12.50
2023-04-25T08:39:08.631Z,12.90
2023-04-25T08:41:38.481Z,12.90
2023-04-25T08:44:09.277Z,13.00
2023-04-25T08:46:39.922Z,13.00
2023-04-25T08:49:11.073Z,13.00
2023-04-25T08:51:46.264Z,13.10
2023-04-25T08:54:33.583Z,13.60
2023-04-25T08:57:05.029Z,14.10
2023-04-25T08:59:35.180Z,14.40
2023-04-25T09:02:04.920Z,14.40
2023-04-25T09:04:34.784Z,14.40
2023-04-25T09:07:02.925Z,14.20
2023-04-25T09:09:32.371Z,14.00
2023-04-25T09:12:02.577Z,13.70
2023-04-25T09:14:30.950Z,14.00
2023-04-25T09:17:04.022Z,14.30
2023-04-25T09:19:40.357Z,14.90
2023-04-25T09:22:10.445Z,15.70
2023-04-25T09:24:39.757Z,16.90
2023-04-25T09:27:08.312Z,18.00
2023-04-25T09:29:38.853Z,18.40
2023-04-25T09:32:18.621Z,17.80
2023-04-25T09:34:52.771Z,16.70
2023-04-25T09:37:22.550Z,16.10
2023-04-25T09:39:51.809Z,15.60
2023-04-25T09:42:20.687Z,15.00
2023-04-25T09:44:49.259Z,14.30
2023-04-25T09:47:18.861Z,13.70
2023-04-25T09:49:48.466Z,13.30
2023-04-25T09:52:18.438Z,13.00
2023-04-25T09:54:47.066Z,13.20
2023-04-25T09:57:16.896Z,13.60
2023-04-25T09:59:47.525Z,15.00
2023-04-25T10:02:18.026Z,17.20
2023-04-25T10:04:49.968Z,19.40
2023-04-25T10:07:19.943Z,20.40
2023-04-25T10:09:50.783Z,21.20
2023-04-25T10:12:19.804Z,21.50
2023-04-25T10:14:48.916Z,20.10
2023-04-25T10:17:16.989Z,18.70
2023-04-25T10:19:45.508Z,17.00
2023-04-25T10:22:19.512Z,15.90
2023-04-25T10:24:48.847Z,15.00
2023-04-25T10:27:17.236Z,14.40
2023-04-25T10:29:45.548Z,13.90
2023-04-25T10:32:13.912Z,13.60
2023-04-25T10:34:43.452Z,15.20
2023-04-25T10:37:12.461Z,16.90
2023-04-25T10:39:43.331Z,17.40
2023-04-25T10:42:11.458Z,16.50
2023-04-25T10:44:41.048Z,16.00
2023-04-25T10:47:10.635Z,15.10
2023-04-25T10:49:40.256Z,14.70
2023-04-25T10:52:20.437Z,14.20
2023-04-25T10:54:55.759Z,13.50
2023-04-25T10:57:34.623Z,12.90
2023-04-25T11:00:12.181Z,12.70
2023-04-25T11:02:44.082Z,12.50
2023-04-25T11:05:12.831Z,12.50
2023-04-25T11:07:59.416Z,12.20
2023-04-25T11:10:36.238Z,12.30
2023-04-25T11:13:04.454Z,12.40
2023-04-25T11:15:32.711Z,12.20
2023-04-25T11:18:00.974Z,12.00
2023-04-25T11:20:30.339Z,12.00
2023-04-25T11:23:01.251Z,12.20
2023-04-25T11:25:30.542Z,12.40
2023-04-25T11:28:02.196Z,12.60
2023-04-25T11:30:31.780Z,13.20
2023-04-25T11:33:00.267Z,13.90
2023-04-25T11:35:28.475Z,14.90
2023-04-25T11:37:56.883Z,15.80
2023-04-25T11:40:25.488Z,16.00
2023-04-25T11:42:54.926Z,16.40
2023-04-25T11:45:25.914Z,16.90
2023-04-25T11:47:54.339Z,17.70
2023-04-25T11:50:22.620Z,17.60
2023-04-25T11:52:51.326Z,17.50
2023-04-25T11:55:20.994Z,16.80
2023-04-25T11:57:51.205Z,16.40
2023-04-25T12:00:21.341Z,16.20
2023-04-25T12:02:54.905Z,15.80
2023-04-25T12:05:32.544Z,15.10
2023-04-25T12:08:13.897Z,14.00
2023-04-25T12:10:44.158Z,13.30
2023-04-25T12:13:23.499Z,12.80
2023-04-25T12:15:52.034Z,12.40
2023-04-25T12:18:24.906Z,12.20
2023-04-25T12:20:54.475Z,12.40
2023-04-25T12:23:28.522Z,13.10
2023-04-25T12:25:57.052Z,13.70
2023-04-25T12:28:28.509Z,14.00
2023-04-25T12:30:58.819Z,14.10
2023-04-25T12:33:29.471Z,14.20
2023-04-25T12:35:58.525Z,14.10
2023-04-25T12:38:27.951Z,14.20
2023-04-25T12:40:56.797Z,14.10
2023-04-25T12:43:25.115Z,14.30
2023-04-25T12:45:54.253Z,14.70
2023-04-25T12:48:22.736Z,15.70
2023-04-25T12:50:53.441Z,16.80
2023-04-25T12:53:22.710Z,17.80
2023-04-25T12:55:51.055Z,18.20
2023-04-25T12:58:21.044Z,19.30
2023-04-25T13:00:49.475Z,19.60
2023-04-25T13:03:17.950Z,20.60
2023-04-25T13:05:46.734Z,20.40
2023-04-25T13:08:16.416Z,20.00
2023-04-25T13:10:44.615Z,19.80
2023-04-25T13:13:12.693Z,19.30
2023-04-25T13:15:40.881Z,18.20
2023-04-25T13:18:09.199Z,17.80
2023-04-25T13:20:37.383Z,17.90
2023-04-25T13:23:05.548Z,17.50
2023-04-25T13:25:35.161Z,17.30
2023-04-25T13:28:04.077Z,17.60
2023-04-25T13:30:32.153Z,17.80
2023-04-25T13:33:04.448Z,17.80
2023-04-25T13:35:33.256Z,17.90
2023-04-25T13:38:01.787Z,19.00
2023-04-25T13:40:30.179Z,19.90
2023-04-25T13:43:00.166Z,20.10
2023-04-25T13:45:28.594Z,20.40
2023-04-25T13:47:57.288Z,21.20
2023-04-25T13:50:25.521Z,21.90
2023-04-25T13:52:53.615Z,22.20
2023-04-25T13:55:21.975Z,23.20
2023-04-25T13:57:50.172Z,23.40
2023-04-25T14:00:21.427Z,22.40
2023-04-25T14:02:50.901Z,22.70
2023-04-25T14:05:19.303Z,22.60
2023-04-25T14:07:48.153Z,22.50
2023-04-25T14:10:16.720Z,22.50
2023-04-25T14:12:44.885Z,21.90
2023-04-25T14:15:13.380Z,21.60
2023-04-25T14:17:43.258Z,22.70
2023-04-25T14:20:12.378Z,22.60
2023-04-25T14:22:44.044Z,21.10
2023-04-25T14:25:12.313Z,19.80
2023-04-25T14:27:40.606Z,18.30
2023-04-25T14:30:10.552Z,17.00
2023-04-25T14:32:38.859Z,16.40
2023-04-25T14:35:10.155Z,15.80
2023-04-25T14:37:38.493Z,14.90
2023-04-25T14:40:09.835Z,14.00
2023-04-25T14:42:37.961Z,13.50
2023-04-25T14:45:08.380Z,13.00
2023-04-25T14:47:37.173Z,12.60
2023-04-25T14:50:06.333Z,12.20
2023-04-25T14:52:36.054Z,12.00
2023-04-25T14:55:06.226Z,11.80
2023-04-25T14:57:34.762Z,11.70
2023-04-25T15:00:05.971Z,11.40
2023-04-25T15:02:34.310Z,11.20
2023-04-25T15:05:03.165Z,11.10
2023-04-25T15:07:31.523Z,10.90
2023-04-25T15:10:01.431Z,10.70
2023-04-25T15:12:29.679Z,10.60
2023-04-25T15:14:58.015Z,10.40
2023-04-25T15:17:26.580Z,10.30
2023-04-25T15:19:55.586Z,9.90
2023-04-25T15:22:23.834Z,9.80
2023-04-25T15:24:52.383Z,9.70
2023-04-25T15:27:22.426Z,9.50
2023-04-25T15:29:50.844Z,9.40
2023-04-25T15:32:19.151Z,9.40
2023-04-25T15:34:47.460Z,9.40
2023-04-25T15:37:15.725Z,9.50
2023-04-25T15:39:43.884Z,9.50
2023-04-25T15:42:12.042Z,9.50
2023-04-25T15:44:41.569Z,9.60
2023-04-25T15:47:09.904Z,10.10
2023-04-25T15:49:38.024Z,10.90
2023-04-25T15:52:06.225Z,11.50
2023-04-25T15:54:34.343Z,11.90
2023-04-25T15:57:02.473Z,12.20
2023-04-25T15:59:30.573Z,12.50
2023-04-25T16:02:00.178Z,12.70
2023-04-25T16:04:31.004Z,12.90
2023-04-25T16:06:59.248Z,12.70
2023-04-25T16:09:27.554Z,12.50
2023-04-25T16:11:56.296Z,12.10
2023-04-25T16:14:24.558Z,11.60
2023-04-25T16:16:52.544Z,11.20
2023-04-25T16:19:22.188Z,11.10
2023-04-25T16:21:50.777Z,11.10
2023-04-25T16:24:18.992Z,11.30
2023-04-25T16:26:47.135Z,11.30
2023-04-25T16:29:17.667Z,11.20
2023-04-25T16:31:47.313Z,11.10
2023-04-25T16:34:20.523Z,10.90
2023-04-25T16:36:54.458Z,10.70
2023-04-25T16:39:24.396Z,10.50
2023-04-25T16:41:53.378Z,10.40
2023-04-25T16:44:23.214Z,10.10
2023-04-25T16:46:53.402Z,9.80
2023-04-25T16:49:21.756Z,9.50
2023-04-25T16:51:52.027Z,9.40
2023-04-25T16:54:21.457Z,9.20
2023-04-25T16:56:49.529Z,9.00
2023-04-25T16:59:22.337Z,8.90
2023-04-25T17:01:50.608Z,8.80
2023-04-25T17:04:19.019Z,8.80
2023-04-25T17:06:47.210Z,8.80
2023-04-25T17:09:16.734Z,8.90
2023-04-25T17:11:44.993Z,8.90
2023-04-25T17:14:13.324Z,9.00
2023-04-25T17:16:41.594Z,9.10
2023-04-25T17:19:10.851Z,9.20
2023-04-25T17:21:39.313Z,9.10
2023-04-25T17:24:09.834Z,9.30
2023-04-25T17:26:39.487Z,9.40
2023-04-25T17:29:07.862Z,9.40
2023-04-25T17:31:36.684Z,9.30
2023-04-25T17:34:05.334Z,9.30
2023-04-25T17:36:33.574Z,9.30
2023-04-25T17:39:01.801Z,9.20
2023-04-25T17:41:30.068Z,9.30
2023-04-25T17:43:59.760Z,9.10
2023-04-25T17:46:29.591Z,9.00
2023-04-25T17:48:58.827Z,8.80
2023-04-25T17:51:27.024Z,8.60
2023-04-25T17:53:55.386Z,8.50
2023-04-25T17:56:27.098Z,8.50
2023-04-25T17:58:56.112Z,8.50
2023-04-25T18:01:25.957Z,8.50
2023-04-25T18:03:54.191Z,8.50
2023-04-25T18:06:22.552Z,8.40
2023-04-25T18:08:51.096Z,8.30
2023-04-25T18:11:19.588Z,8.30
2023-04-25T18:13:50.933Z,8.10
2023-04-25T18:16:19.187Z,8.00
2023-04-25T18:18:53.514Z,7.90
2023-04-25T18:21:22.357Z,7.80
2023-04-25T18:23:50.584Z,7.70
2023-04-25T18:26:20.259Z,7.60
2023-04-25T18:28:48.881Z,7.50
2023-04-25T18:31:20.134Z,7.40
2023-04-25T18:33:50.344Z,7.20
2023-04-25T18:36:18.772Z,7.10
2023-04-25T18:38:50.530Z,6.90
2023-04-25T18:41:48.034Z,6.80
2023-04-25T18:44:07.975Z,6.70
2023-04-25T18:46:37.220Z,6.60
2023-04-25T18:49:06.983Z,6.50
2023-04-25T18:51:35.354Z,6.40
2023-04-25T18:54:04.644Z,6.30
2023-04-25T18:56:33.010Z,6.30
2023-04-25T18:59:01.384Z,6.30
2023-04-25T19:01:29.880Z,6.30
2023-04-25T19:03:58.849Z,6.40
2023-04-25T19:06:29.841Z,6.50
2023-04-25T19:08:58.784Z,6.50
2023-04-25T19:11:27.021Z,6.40
2023-04-25T19:13:56.950Z,6.40
2023-04-25T19:16:26.525Z,6.30
2023-04-25T19:18:56.442Z,6.20
2023-04-25T19:21:24.821Z,6.10
2023-04-25T19:23:55.090Z,6.00
2023-04-25T19:26:24.128Z,5.80
2023-04-25T19:29:05.730Z,5.70
2023-04-25T19:31:34.804Z,5.60
2023-04-25T19:34:03.274Z,5.40
2023-04-25T19:36:31.765Z,5.40
2023-04-25T19:39:04.397Z,5.30
2023-04-25T19:41:33.824Z,5.20
2023-04-25T19:44:06.535Z,5.10
2023-04-25T19:46:35.973Z,5.10
2023-04-25T19:49:07.080Z,5.10
2023-04-25T19:51:36.376Z,5.10
2023-04-25T19:54:06.781Z,5.20
2023-04-25T19:56:35.043Z,5.20
2023-04-25T19:59:03.576Z,5.30
2023-04-25T20:01:31.913Z,5.40
2023-04-25T20:04:00.273Z,5.50
2023-04-25T20:06:29.115Z,5.70
2023-04-25T20:08:57.614Z,5.60
2023-04-25T20:11:29.249Z,5.60
2023-04-25T20:13:57.619Z,5.60
2023-04-25T20:16:26.213Z,5.60
2023-04-25T20:18:55.254Z,5.60
2023-04-25T20:21:24.242Z,5.60
2023-04-25T20:23:52.396Z,5.60
2023-04-25T20:26:22.624Z,5.60
2023-04-25T20:28:53.230Z,5.60
2023-04-25T20:31:22.336Z,5.60
2023-04-25T20:33:50.952Z,5.50
2023-04-25T20:36:19.810Z,5.50
2023-04-25T20:38:48.181Z,5.50
2023-04-25T20:41:16.946Z,5.50
2023-04-25T20:43:46.075Z,5.40
2023-04-25T20:46:16.192Z,5.40
2023-04-25T20:48:44.528Z,5.40
2023-04-25T20:51:12.861Z,5.40
2023-04-25T20:53:41.011Z,5.40
2023-04-25T20:56:10.916Z,5.30
2023-04-25T20:58:39.047Z,5.30
2023-04-25T21:01:08.089Z,5.30
2023-04-25T21:03:38.066Z,5.30
2023-04-25T21:06:07.600Z,5.30
2023-04-25T21:08:35.824Z,5.20
2023-04-25T21:11:04.166Z,5.10
2023-04-25T21:13:32.421Z,5.00
2023-04-25T21:16:00.494Z,4.90
2023-04-25T21:18:29.934Z,4.90
2023-04-25T21:20:59.605Z,4.80
2023-04-25T21:23:27.867Z,4.70
2023-04-25T21:25:56.010Z,4.60
2023-04-25T21:28:24.544Z,4.50
2023-04-25T21:30:52.802Z,4.50
2023-04-25T21:33:21.012Z,4.50
2023-04-25T21:35:49.164Z,4.40
2023-04-25T21:38:18.905Z,4.40
2023-04-25T21:40:47.122Z,4.40
2023-04-25T21:43:15.414Z,4.40
2023-04-25T21:46:11.070Z,4.40
2023-04-25T21:48:31.836Z,4.40
2023-04-25T21:51:00.018Z,4.40
2023-04-25T21:53:29.599Z,4.50
2023-04-25T21:55:57.856Z,4.30
2023-04-25T21:58:26.047Z,4.30
2023-04-25T22:00:55.613Z,4.30
2023-04-25T22:03:23.980Z,4.20
2023-04-25T22:05:52.230Z,4.20
2023-04-25T22:08:20.798Z,4.20
2023-04-25T22:10:50.472Z,4.20
2023-04-25T22:13:18.682Z,4.20
2023-04-25T22:15:47.695Z,4.20
2023-04-25T22:18:16.374Z,4.10
2023-04-25T22:20:45.108Z,4.10
2023-04-25T22:23:13.369Z,4.00
2023-04-25T22:25:42.163Z,3.90
2023-04-25T22:28:12.699Z,3.90
2023-04-25T22:30:40.935Z,3.80
2023-04-25T22:33:09.139Z,3.80
2023-04-25T22:35:37.356Z,3.70
2023-04-25T22:38:05.422Z,3.70
2023-04-25T22:40:33.548Z,3.70
2023-04-25T22:43:02.164Z,3.60
2023-04-25T22:45:31.941Z,3.50
2023-04-25T22:48:00.375Z,3.50
2023-04-25T22:50:28.510Z,3.40
2023-04-25T22:52:56.703Z,3.30
2023-04-25T22:55:26.531Z,3.30
2023-04-25T22:57:54.872Z,3.30
2023-04-25T23:00:26.249Z,3.30
2023-04-25T23:02:55.907Z,3.40
2023-04-25T23:05:24.630Z,3.50
2023-04-25T23:07:52.942Z,3.60
2023-04-25T23:10:21.138Z,3.60
2023-04-25T23:12:49.407Z,3.80
2023-04-25T23:15:18.043Z,3.90
2023-04-25T23:17:46.422Z,3.90
2023-04-25T23:20:16.308Z,4.10
2023-04-25T23:22:44.439Z,4.00
2023-04-25T23:25:12.858Z,4.20
2023-04-25T23:27:41.737Z,4.00
2023-04-25T23:30:11.394Z,3.90
2023-04-25T23:32:39.870Z,3.90
2023-04-25T23:35:08.814Z,4.00
2023-04-25T23:37:39.204Z,3.70
2023-04-25T23:40:09.822Z,3.70
2023-04-25T23:42:38.486Z,3.60
2023-04-25T23:45:08.506Z,3.60
2023-04-25T23:47:37.517Z,3.60
2023-04-25T23:50:06.550Z,3.50
2023-04-25T23:52:34.652Z,3.50
2023-04-25T23:55:05.457Z,3.50
2023-04-25T23:57:34.016Z,3.40
